Time;durP1;ratioP1;P1;durP2;ratioP2;P2;SDS_P1;SDS_P2;PMS_P1;PMS_P2;Temp;Humidity;BMP_temperature;BMP_pressure;BME280_temperature;BME280_humidity;BME280_pressure;Samples;Min_cycle;Max_cycle;Signal;HPM_P1;HPM_P2
2023/04/03 00:02:15;;;;;;;2.38;1.30;;;1.70;99.90;;;;;;5107006;27;20043;-65
2023/04/03 00:04:41;;;;;;;2.30;1.15;;;1.60;99.90;;;;;;5107502;27;20064;-65
2023/04/03 00:07:07;;;;;;;2.75;1.25;;;1.60;99.90;;;;;;5103363;27;20042;-65
2023/04/03 00:09:32;;;;;;;3.53;1.70;;;1.60;99.90;;;;;;5108924;27;20035;-64
2023/04/03 00:11:58;;;;;;;2.65;1.20;;;1.50;99.90;;;;;;5126240;27;20042;-65
2023/04/03 00:14:23;;;;;;;4.50;1.65;;;1.50;99.90;;;;;;5103921;27;20046;-65
2023/04/03 00:16:49;;;;;;;4.63;1.30;;;1.40;99.90;;;;;;5102372;27;20126;-65
2023/04/03 00:19:14;;;;;;;2.70;1.25;;;1.40;99.90;;;;;;5105790;27;20104;-65
2023/04/03 00:21:40;;;;;;;2.67;1.42;;;1.40;99.90;;;;;;5105151;27;20499;-65
2023/04/03 00:24:06;;;;;;;4.63;1.20;;;1.40;99.90;;;;;;5106897;27;20058;-65
2023/04/03 00:26:32;;;;;;;1.77;1.15;;;1.30;99.90;;;;;;5110539;27;20035;-65
2023/04/03 00:28:57;;;;;;;2.42;1.20;;;1.40;99.90;;;;;;5117300;27;20389;-64
2023/04/03 00:31:23;;;;;;;3.50;1.30;;;1.30;99.90;;;;;;5107424;27;20038;-65
2023/04/03 00:33:48;;;;;;;3.10;1.40;;;1.30;99.90;;;;;;5126456;27;20035;-65
2023/04/03 00:36:14;;;;;;;2.58;1.05;;;1.30;99.90;;;;;;5126870;27;20047;-65
2023/04/03 00:38:40;;;;;;;2.97;1.25;;;1.40;99.90;;;;;;5104803;27;20030;-65
2023/04/03 00:41:06;;;;;;;3.70;1.33;;;1.40;99.90;;;;;;5107785;27;20050;-65
2023/04/03 00:43:32;;;;;;;5.90;1.50;;;1.40;99.90;;;;;;5106031;27;20031;-65
2023/04/03 00:45:59;;;;;;;4.50;1.20;;;1.40;99.90;;;;;;5106116;27;20042;-65
2023/04/03 00:48:32;;;;;;;2.28;1.15;;;1.40;99.90;;;;;;5104766;27;20263;-65
2023/04/03 00:50:58;;;;;;;4.72;1.65;;;1.40;99.90;;;;;;5098456;27;20048;-65
2023/04/03 00:53:38;;;;;;;4.30;1.48;;;1.40;99.90;;;;;;5105283;27;20058;-65
2023/04/03 00:56:11;;;;;;;2.05;1.35;;;1.40;99.90;;;;;;5106423;27;20039;-65
2023/04/03 00:58:39;;;;;;;;;;;1.40;99.90;;;;;;5103659;27;20035;-65
2023/04/03 01:01:10;;;;;;;4.15;1.25;;;1.40;99.90;;;;;;5094253;27;21194;-64
2023/04/03 01:03:35;;;;;;;4.20;1.50;;;1.40;99.90;;;;;;5105612;27;20470;-65
2023/04/03 01:06:01;;;;;;;2.78;1.27;;;1.40;99.90;;;;;;5109595;27;20039;-65
2023/04/03 01:08:27;;;;;;;4.20;1.50;;;1.40;99.90;;;;;;5104359;27;20043;-66
2023/04/03 01:10:52;;;;;;;4.07;1.20;;;1.40;99.90;;;;;;5107011;27;20045;-65
2023/04/03 01:13:23;;;;;;;3.67;1.42;;;1.40;99.90;;;;;;5119992;27;20062;-64
2023/04/03 01:15:48;;;;;;;4.72;1.70;;;1.40;99.90;;;;;;5104071;27;20481;-65
2023/04/03 01:18:14;;;;;;;4.85;1.77;;;1.30;99.90;;;;;;5106011;27;20099;-65
2023/04/03 01:20:55;;;;;;;2.85;1.40;;;1.30;99.90;;;;;;5126539;27;20027;-65
2023/04/03 01:23:34;;;;;;;1.80;1.38;;;1.30;99.90;;;;;;5124639;27;20047;-65
2023/04/03 01:25:59;;;;;;;4.63;1.65;;;1.30;99.90;;;;;;5107422;27;20035;-65
2023/04/03 01:28:32;;;;;;;4.10;1.52;;;1.30;99.90;;;;;;5105376;27;20509;-65
2023/04/03 01:31:24;;;;;;;4.15;1.50;;;1.20;99.90;;;;;;5106445;27;20035;-65
2023/04/03 01:33:50;;;;;;;1.85;1.30;;;1.20;99.90;;;;;;5120268;27;20072;-65
2023/04/03 01:36:22;;;;;;;3.08;1.65;;;1.20;99.90;;;;;;5124856;27;20135;-64
2023/04/03 01:38:48;;;;;;;4.00;1.60;;;1.20;99.90;;;;;;5102902;27;20400;-65
2023/04/03 01:41:15;;;;;;;5.22;1.95;;;1.10;99.90;;;;;;5109324;27;20054;-65
2023/04/03 01:43:41;;;;;;;2.63;1.50;;;1.20;99.90;;;;;;5124287;27;20031;-65
2023/04/03 01:46:07;;;;;;;5.53;1.77;;;1.10;99.90;;;;;;5104409;27;20118;-65
2023/04/03 01:48:33;;;;;;;3.60;1.48;;;1.10;99.90;;;;;;5100192;27;20047;-65
2023/04/03 01:50:58;;;;;;;3.40;1.77;;;1.00;99.90;;;;;;5100589;27;20035;-65
2023/04/03 01:53:24;;;;;;;3.20;1.55;;;1.00;99.90;;;;;;5105074;27;20393;-65
2023/04/03 01:55:50;;;;;;;5.10;1.70;;;1.00;99.90;;;;;;5107224;27;20042;-65
2023/04/03 01:58:15;;;;;;;6.70;1.90;;;1.00;99.90;;;;;;5100983;27;20310;-64
2023/04/03 02:00:41;;;;;;;5.30;1.88;;;0.90;99.90;;;;;;5118156;27;20038;-64
2023/04/03 02:03:06;;;;;;;4.80;1.77;;;0.90;99.90;;;;;;5102266;27;20058;-65
2023/04/03 02:05:32;;;;;;;2.88;1.50;;;0.90;99.90;;;;;;5106087;27;20082;-65
2023/04/03 02:07:58;;;;;;;5.10;2.05;;;0.80;99.90;;;;;;5104785;27;20536;-64
2023/04/03 02:10:23;;;;;;;4.20;1.88;;;0.80;99.90;;;;;;5101737;27;20066;-64
2023/04/03 02:12:49;;;;;;;4.72;1.85;;;0.80;99.90;;;;;;5099747;27;20043;-64
2023/04/03 02:15:15;;;;;;;9.45;1.90;;;0.70;99.90;;;;;;5126501;27;20039;-64
2023/04/03 02:17:40;;;;;;;5.40;2.33;;;0.70;99.90;;;;;;5102452;27;20039;-63
2023/04/03 02:20:06;;;;;;;3.97;1.80;;;0.70;99.90;;;;;;5122516;27;20445;-65
2023/04/03 02:22:32;;;;;;;5.32;2.10;;;0.70;99.90;;;;;;5098091;27;20035;-65
2023/04/03 02:24:58;;;;;;;5.70;2.15;;;0.70;99.90;;;;;;5105525;27;20039;-64
2023/04/03 02:27:24;;;;;;;4.75;2.38;;;0.70;99.90;;;;;;5103906;27;20038;-64
2023/04/03 02:29:49;;;;;;;5.82;2.28;;;0.60;99.90;;;;;;5103933;27;20034;-64
2023/04/03 02:32:15;;;;;;;5.60;2.15;;;0.60;99.90;;;;;;5122476;27;20064;-65
2023/04/03 02:34:40;;;;;;;7.53;2.35;;;0.60;99.90;;;;;;5101292;27;20039;-64
2023/04/03 02:37:06;;;;;;;4.70;1.80;;;0.60;99.90;;;;;;5104525;27;20497;-64
2023/04/03 02:39:32;;;;;;;5.82;2.53;;;0.60;99.90;;;;;;5101921;27;20038;-64
2023/04/03 02:41:57;;;;;;;5.40;2.03;;;0.60;99.90;;;;;;5105323;27;20039;-64
2023/04/03 02:44:23;;;;;;;4.40;2.13;;;0.60;99.90;;;;;;5102931;27;20374;-65
2023/04/03 02:46:49;;;;;;;4.65;2.15;;;0.60;99.90;;;;;;5101623;27;21812;-64
2023/04/03 02:49:15;;;;;;;5.53;2.45;;;0.60;99.90;;;;;;5119992;27;20023;-64
2023/04/03 02:51:41;;;;;;;6.13;2.25;;;0.60;99.90;;;;;;5103810;28;20300;-64
2023/04/03 02:54:06;;;;;;;4.95;2.00;;;0.50;99.90;;;;;;5098864;27;20039;-64
2023/04/03 02:56:32;;;;;;;5.45;2.38;;;0.50;99.90;;;;;;5103784;28;20035;-64
2023/04/03 02:58:58;;;;;;;3.75;2.20;;;0.50;99.90;;;;;;5099782;28;20068;-65
2023/04/03 03:01:23;;;;;;;5.15;2.00;;;0.50;99.90;;;;;;5104364;28;20035;-64
2023/04/03 03:03:49;;;;;;;5.60;2.38;;;0.50;99.90;;;;;;5104259;28;20054;-64
2023/04/03 03:06:16;;;;;;;7.53;2.22;;;0.40;99.90;;;;;;5107604;28;20289;-64
2023/04/03 03:08:43;;;;;;;5.70;2.45;;;0.40;99.90;;;;;;5103933;28;20035;-65
2023/04/03 03:11:09;;;;;;;7.22;2.30;;;0.40;99.90;;;;;;5100878;28;20066;-64
2023/04/03 03:13:34;;;;;;;4.57;2.33;;;0.40;99.90;;;;;;5103425;28;20054;-64
2023/04/03 03:16:01;;;;;;;7.82;2.70;;;0.30;99.90;;;;;;5108746;27;20036;-65
2023/04/03 03:18:27;;;;;;;4.68;2.10;;;0.30;99.90;;;;;;5109218;27;20073;-64
2023/04/03 03:20:54;;;;;;;4.82;2.60;;;0.30;99.90;;;;;;5107599;27;20123;-65
2023/04/03 03:23:20;;;;;;;10.80;2.58;;;0.30;99.90;;;;;;5107958;27;20031;-65
2023/04/03 03:25:46;;;;;;;5.22;2.53;;;0.20;99.90;;;;;;5104587;27;20035;-64
2023/04/03 03:28:11;;;;;;;6.70;2.38;;;0.20;99.90;;;;;;5108790;27;20039;-64
2023/04/03 03:30:37;;;;;;;7.38;2.63;;;0.20;99.90;;;;;;5102653;27;20046;-65
2023/04/03 03:33:03;;;;;;;5.63;2.28;;;0.20;99.90;;;;;;5103907;27;20124;-64
2023/04/03 03:35:28;;;;;;;6.70;3.10;;;0.20;99.90;;;;;;5100385;27;20126;-64
2023/04/03 03:37:54;;;;;;;5.22;2.65;;;0.10;99.90;;;;;;5127476;27;20505;-64
2023/04/03 03:40:19;;;;;;;4.63;2.05;;;0.10;99.90;;;;;;5127720;27;20035;-65
2023/04/03 03:42:46;;;;;;;7.60;2.72;;;0.10;99.90;;;;;;5104451;27;21051;-65
2023/04/03 03:45:12;;;;;;;6.13;2.47;;;0.10;99.90;;;;;;5126423;27;20431;-65
2023/04/03 03:47:37;;;;;;;6.93;2.25;;;0.00;99.90;;;;;;5105264;27;20039;-64
2023/04/03 03:50:03;;;;;;;7.70;2.13;;;0.00;99.90;;;;;;5105765;27;20035;-65
2023/04/03 03:52:30;;;;;;;5.20;2.38;;;0.00;99.90;;;;;;5126912;27;20027;-65
2023/04/03 03:54:56;;;;;;;5.00;2.15;;;0.00;99.90;;;;;;5107417;27;20508;-65
2023/04/03 03:57:21;;;;;;;6.28;2.17;;;-0.10;99.90;;;;;;5096489;27;20126;-65
2023/04/03 03:59:48;;;;;;;9.23;3.13;;;-0.10;99.90;;;;;;5121597;27;20027;-65
2023/04/03 04:02:14;;;;;;;6.70;2.00;;;-0.10;99.90;;;;;;5105525;27;20089;-65
2023/04/03 04:04:40;;;;;;;6.60;2.83;;;-0.20;99.90;;;;;;5105527;27;20389;-65
2023/04/03 04:07:06;;;;;;;4.90;2.22;;;-0.30;99.90;;;;;;5111320;27;20043;-65
2023/04/03 04:09:31;;;;;;;5.78;2.15;;;-0.30;99.90;;;;;;5104620;27;20034;-65
2023/04/03 04:11:57;;;;;;;4.95;2.38;;;-0.40;99.90;;;;;;5105785;27;20462;-65
2023/04/03 04:14:23;;;;;;;6.60;2.50;;;-0.40;99.90;;;;;;5105487;27;20072;-65
2023/04/03 04:16:51;;;;;;;4.05;2.00;;;-0.50;99.90;;;;;;5128219;27;21481;-65
2023/04/03 04:19:17;;;;;;;7.13;2.28;;;-0.50;99.90;;;;;;5109093;27;20038;-65
2023/04/03 04:21:42;;;;;;;7.97;2.30;;;-0.50;99.90;;;;;;5087717;27;20370;-65
2023/04/03 04:24:09;;;;;;;6.43;2.30;;;-0.60;99.90;;;;;;5128045;27;20110;-65
2023/04/03 04:26:34;;;;;;;6.30;2.55;;;-0.60;99.90;;;;;;5126195;27;20043;-65
2023/04/03 04:29:00;;;;;;;8.18;2.30;;;-0.70;99.90;;;;;;5106549;27;20058;-65
2023/04/03 04:31:25;;;;;;;6.05;2.38;;;-0.70;99.90;;;;;;5105324;27;20477;-65
2023/04/03 04:33:51;;;;;;;5.72;2.13;;;-0.70;99.90;;;;;;5125448;27;20443;-65
2023/04/03 04:36:16;;;;;;;5.20;3.08;;;-0.80;99.90;;;;;;5105382;27;20049;-65
2023/04/03 04:38:42;;;;;;;5.78;2.30;;;-0.80;99.90;;;;;;5124195;27;20038;-65
2023/04/03 04:41:08;;;;;;;4.80;2.30;;;-0.80;99.90;;;;;;5104274;27;20121;-64
2023/04/03 04:43:34;;;;;;;5.50;2.50;;;-0.80;99.90;;;;;;5104744;27;20074;-65
2023/04/03 04:46:06;;;;;;;7.78;2.58;;;-0.80;99.90;;;;;;5107902;27;20042;-65
2023/04/03 04:48:32;;;;;;;4.82;2.40;;;-0.80;99.90;;;;;;5107490;27;20039;-65
2023/04/03 04:50:58;;;;;;;7.60;3.03;;;-0.80;99.90;;;;;;5102997;27;20027;-65
2023/04/03 04:53:23;;;;;;;6.45;2.70;;;-0.80;99.90;;;;;;5104261;27;20081;-65
2023/04/03 04:55:49;;;;;;;5.05;2.40;;;-0.80;99.90;;;;;;5106759;27;20035;-65
2023/04/03 04:58:15;;;;;;;7.38;2.40;;;-0.80;99.90;;;;;;5106066;27;20043;-65
2023/04/03 05:00:40;;;;;;;6.38;2.85;;;-0.80;99.90;;;;;;5106618;27;20031;-65
2023/04/03 05:03:05;;;;;;;6.88;2.20;;;-0.80;99.90;;;;;;5121664;27;20412;-65
2023/04/03 05:05:31;;;;;;;5.90;2.33;;;-0.70;99.90;;;;;;5106142;27;20039;-64
2023/04/03 05:07:57;;;;;;;6.80;2.80;;;-0.70;99.90;;;;;;5099697;27;20081;-64
2023/04/03 05:10:22;;;;;;;5.13;2.28;;;-0.70;99.90;;;;;;5104925;27;20053;-64
2023/04/03 05:12:48;;;;;;;8.15;2.90;;;-0.70;99.90;;;;;;5106475;27;20122;-64
2023/04/03 05:15:14;;;;;;;5.00;2.50;;;-0.70;99.90;;;;;;5106553;27;20058;-64
2023/04/03 05:17:39;;;;;;;5.72;2.42;;;-0.70;99.90;;;;;;5103417;27;20631;-64
2023/04/03 05:20:05;;;;;;;4.65;2.35;;;-0.70;99.90;;;;;;5100948;27;20035;-64
2023/04/03 05:22:31;;;;;;;6.53;2.40;;;-0.70;99.90;;;;;;5107131;27;20512;-64
2023/04/03 05:24:57;;;;;;;6.65;2.80;;;-0.70;99.90;;;;;;5103959;27;20039;-64
2023/04/03 05:27:23;;;;;;;6.20;2.50;;;-0.70;99.90;;;;;;5121763;27;20042;-64
2023/04/03 05:29:49;;;;;;;13.52;2.70;;;-0.70;99.90;;;;;;5104652;27;20401;-64
2023/04/03 05:32:16;;;;;;;6.82;2.70;;;-0.70;99.90;;;;;;5118493;27;20039;-65
2023/04/03 05:34:41;;;;;;;7.30;2.88;;;-0.60;99.90;;;;;;5121423;27;20045;-65
2023/04/03 05:37:07;;;;;;;6.88;2.90;;;-0.60;99.90;;;;;;5120472;27;20039;-65
2023/04/03 05:39:32;;;;;;;11.05;3.15;;;-0.50;99.90;;;;;;5104308;27;20063;-65
2023/04/03 05:41:58;;;;;;;7.65;3.30;;;-0.50;99.90;;;;;;5124053;27;20076;-65
2023/04/03 05:44:24;;;;;;;7.07;3.17;;;-0.40;99.90;;;;;;5123856;27;20039;-65
2023/04/03 05:46:49;;;;;;;9.15;3.10;;;-0.40;99.90;;;;;;5120364;27;20129;-64
2023/04/03 05:49:15;;;;;;;5.85;2.60;;;-0.30;99.90;;;;;;5089581;27;20069;-65
2023/04/03 05:51:40;;;;;;;7.70;3.55;;;-0.30;99.90;;;;;;5110006;28;20048;-64
2023/04/03 05:54:13;;;;;;;5.72;2.50;;;-0.20;99.90;;;;;;5100121;27;20051;-65
2023/04/03 05:56:39;;;;;;;8.10;2.70;;;-0.20;99.90;;;;;;5109849;27;20085;-63
2023/04/03 05:59:04;;;;;;;7.78;2.80;;;-0.10;99.90;;;;;;5113028;27;20035;-64
2023/04/03 06:01:30;;;;;;;5.65;2.40;;;-0.10;99.90;;;;;;5103915;27;20477;-64
2023/04/03 06:03:58;;;;;;;5.43;2.85;;;0.00;99.90;;;;;;5103058;27;20069;-64
2023/04/03 06:06:23;;;;;;;8.13;3.60;;;0.00;99.90;;;;;;5104906;27;20047;-64
2023/04/03 06:08:50;;;;;;;7.00;2.63;;;0.10;99.90;;;;;;5101853;27;20037;-63
2023/04/03 06:11:16;;;;;;;8.85;2.92;;;0.10;99.90;;;;;;5102270;27;20122;-63
2023/04/03 06:13:41;;;;;;;6.95;3.00;;;0.20;99.90;;;;;;5103960;27;20385;-64
2023/04/03 06:16:12;;;;;;;6.07;3.00;;;0.30;99.90;;;;;;5104655;27;20036;-63
2023/04/03 06:18:37;;;;;;;9.10;2.80;;;0.30;99.90;;;;;;5098130;27;20122;-64
2023/04/03 06:21:04;;;;;;;9.90;2.83;;;0.40;99.90;;;;;;5102993;27;20118;-63
2023/04/03 06:23:30;;;;;;;5.45;2.38;;;0.50;99.90;;;;;;5102371;27;20045;-63
2023/04/03 06:25:55;;;;;;;7.78;2.70;;;0.60;99.90;;;;;;5103114;27;20474;-64
2023/04/03 06:28:21;;;;;;;8.50;2.90;;;0.60;99.90;;;;;;5120296;27;20086;-63
2023/04/03 06:30:46;;;;;;;5.65;2.25;;;0.70;99.90;;;;;;5104760;27;20061;-63
2023/04/03 06:33:12;;;;;;;8.98;2.67;;;0.70;99.90;;;;;;5107230;27;20069;-63
2023/04/03 06:35:38;;;;;;;7.45;2.35;;;0.80;99.90;;;;;;5117669;27;20043;-63
2023/04/03 06:38:09;;;;;;;6.32;2.47;;;0.80;99.90;;;;;;5124858;27;20046;-64
2023/04/03 06:40:35;;;;;;;7.00;2.55;;;0.90;99.90;;;;;;5103413;27;20487;-63
2023/04/03 06:43:01;;;;;;;10.75;2.65;;;1.00;99.90;;;;;;5119989;27;20054;-63
2023/04/03 06:45:27;;;;;;;4.43;2.40;;;1.10;99.90;;;;;;5118133;27;20485;-64
2023/04/03 06:47:53;;;;;;;8.50;2.47;;;1.10;99.90;;;;;;5121209;27;20031;-63
2023/04/03 06:50:19;;;;;;;5.18;2.20;;;1.20;99.90;;;;;;5100882;28;20057;-66
2023/04/03 06:52:44;;;;;;;7.05;2.58;;;1.30;99.90;;;;;;5098276;27;20072;-64
2023/04/03 06:55:11;;;;;;;9.63;2.40;;;1.30;99.90;;;;;;5123517;27;20089;-63
2023/04/03 06:57:37;;;;;;;5.28;2.28;;;1.40;99.90;;;;;;5100452;27;20039;-64
2023/04/03 07:00:04;;;;;;;5.25;2.15;;;1.50;99.90;;;;;;5098116;28;20038;-64
2023/04/03 07:02:30;;;;;;;4.95;2.30;;;1.60;99.90;;;;;;5101424;27;20035;-64
2023/04/03 07:04:55;;;;;;;6.55;2.20;;;1.70;99.90;;;;;;5100795;28;20035;-64
2023/04/03 07:07:21;;;;;;;7.22;2.15;;;1.80;99.90;;;;;;5122071;27;20068;-64
2023/04/03 07:09:47;;;;;;;7.30;2.38;;;1.90;99.90;;;;;;5104367;28;20046;-64
2023/04/03 07:12:13;;;;;;;8.05;2.50;;;2.00;99.90;;;;;;5101395;28;20051;-64
2023/04/03 07:14:39;;;;;;;7.65;2.03;;;2.10;99.90;;;;;;5102820;28;20043;-64
2023/04/03 07:17:04;;;;;;;6.90;2.80;;;2.10;99.90;;;;;;5095214;27;20073;-65
2023/04/03 07:19:31;;;;;;;7.18;2.00;;;2.20;99.90;;;;;;5100228;28;20050;-65
2023/04/03 07:21:56;;;;;;;4.75;1.70;;;2.30;99.90;;;;;;5120604;27;20048;-64
2023/04/03 07:24:22;;;;;;;4.70;1.40;;;2.40;99.90;;;;;;5121058;27;20040;-63
2023/04/03 07:26:51;;;;;;;9.02;1.98;;;2.50;99.90;;;;;;5102633;27;20080;-64
2023/04/03 07:29:17;;;;;;;6.30;1.90;;;2.60;99.90;;;;;;5101157;28;20039;-65
2023/04/03 07:31:44;;;;;;;5.72;1.90;;;2.80;99.90;;;;;;5100646;27;20084;-63
2023/04/03 07:34:10;;;;;;;6.45;1.90;;;2.90;99.90;;;;;;5103619;28;20043;-64
2023/04/03 07:36:36;;;;;;;6.15;1.77;;;3.00;99.90;;;;;;5102903;28;20046;-64
2023/04/03 07:39:01;;;;;;;4.60;1.70;;;3.00;99.90;;;;;;5124433;27;20023;-64
2023/04/03 07:41:28;;;;;;;4.57;1.40;;;3.20;99.90;;;;;;5103292;28;20486;-64
2023/04/03 07:43:54;;;;;;;4.63;1.90;;;3.30;99.90;;;;;;5103924;28;20047;-63
2023/04/03 07:46:20;;;;;;;5.05;1.63;;;3.30;99.90;;;;;;5123357;27;20841;-64
2023/04/03 07:48:46;;;;;;;4.43;1.92;;;3.40;99.90;;;;;;5120308;27;20041;-64
2023/04/03 07:51:12;;;;;;;4.15;1.67;;;3.50;99.90;;;;;;5103027;28;20046;-64
2023/04/03 07:53:38;;;;;;;4.68;1.65;;;3.60;99.90;;;;;;5096459;28;20043;-64
2023/04/03 07:56:04;;;;;;;5.20;1.75;;;3.60;99.90;;;;;;5110525;27;20053;-64
2023/04/03 07:58:30;;;;;;;6.55;1.50;;;3.70;99.90;;;;;;5097032;28;20415;-64
2023/04/03 08:00:56;;;;;;;4.75;1.40;;;3.80;99.90;;;;;;5107800;27;20046;-64
2023/04/03 08:03:22;;;;;;;4.72;1.35;;;3.90;99.90;;;;;;5109879;27;20300;-64
2023/04/03 08:05:49;;;;;;;3.83;1.40;;;3.90;99.90;;;;;;5101091;27;20359;-62
2023/04/03 08:08:23;;;;;;;4.20;1.45;;;4.00;99.90;;;;;;5105328;27;20045;-64
2023/04/03 08:10:51;;;;;;;6.38;1.52;;;4.10;99.90;;;;;;5117460;27;20035;-65
2023/04/03 08:13:16;;;;;;;6.75;1.40;;;4.10;99.90;;;;;;5106312;27;20058;-64
2023/04/03 08:15:42;;;;;;;4.32;1.48;;;4.20;99.90;;;;;;5096097;28;20043;-63
2023/04/03 08:18:07;;;;;;;3.47;1.50;;;4.30;99.90;;;;;;5101908;27;20039;-65
2023/04/03 08:20:33;;;;;;;2.80;1.10;;;4.40;99.90;;;;;;5111388;27;20050;-63
2023/04/03 08:22:58;;;;;;;4.22;1.25;;;4.40;99.90;;;;;;5131160;27;20084;-63
2023/04/03 08:25:24;;;;;;;4.80;1.20;;;4.50;99.90;;;;;;5113207;27;20451;-64
2023/04/03 08:27:50;;;;;;;3.63;1.17;;;4.60;99.90;;;;;;5106394;27;20047;-66
2023/04/03 08:30:16;;;;;;;4.75;1.33;;;4.60;99.90;;;;;;5113978;27;20062;-66
2023/04/03 08:32:42;;;;;;;2.95;1.30;;;4.70;99.90;;;;;;5101180;27;20034;-66
2023/04/03 08:35:08;;;;;;;4.30;1.55;;;4.70;99.90;;;;;;5110176;27;20053;-64
2023/04/03 08:37:39;;;;;;;2.80;1.23;;;4.80;99.90;;;;;;5106784;27;20047;-64
2023/04/03 08:40:07;;;;;;;3.40;1.20;;;5.00;99.90;;;;;;5106278;27;20038;-65
2023/04/03 08:42:41;;;;;;;4.57;1.17;;;5.00;99.90;;;;;;5105377;27;20043;-64
2023/04/03 08:45:44;;;;;;;3.95;1.33;;;5.10;99.90;;;;;;5122498;27;20035;-65
2023/04/03 08:48:20;;;;;;;3.53;1.25;;;5.10;99.90;;;;;;5101526;27;20517;-65
2023/04/03 08:50:50;;;;;;;5.07;1.60;;;5.20;99.90;;;;;;5098435;27;20135;-65
2023/04/03 08:53:20;;;;;;;3.95;1.10;;;5.30;99.90;;;;;;5106937;27;20460;-64
2023/04/03 08:55:49;;;;;;;3.55;1.50;;;5.40;99.90;;;;;;5109994;27;20061;-65
2023/04/03 08:58:14;;;;;;;3.63;1.52;;;5.50;99.90;;;;;;5125700;27;20050;-65
2023/04/03 09:00:51;;;;;;;5.30;1.20;;;5.50;99.90;;;;;;5119926;27;20039;-64
2023/04/03 09:03:19;;;;;;;5.93;1.45;;;5.60;99.90;;;;;;5104702;27;20113;-64
2023/04/03 09:06:01;;;;;;;5.35;1.60;;;5.70;99.90;;;;;;5114139;27;20100;-64
2023/04/03 09:08:31;;;;;;;3.38;1.00;;;5.80;99.90;;;;;;5105195;27;20090;-64
2023/04/03 09:11:30;;;;;;;3.53;1.20;;;5.80;99.90;;;;;;5104899;28;20540;-65
2023/04/03 09:14:32;;;;;;;2.92;0.88;;;6.00;99.90;;;;;;5117384;27;20059;-64
2023/04/03 09:17:04;;;;;;;4.60;1.02;;;6.00;99.90;;;;;;5061368;27;20562;-64
2023/04/03 09:19:47;;;;;;;2.17;0.93;;;6.20;99.90;;;;;;5108779;27;20474;-65
2023/04/03 09:22:24;;;;;;;1.92;0.73;;;6.20;99.90;;;;;;5112472;27;20082;-64
2023/04/03 09:25:00;;;;;;;3.13;1.13;;;6.30;99.90;;;;;;5105199;27;20050;-64
2023/04/03 09:27:25;;;;;;;4.07;0.88;;;6.40;99.90;;;;;;5103389;27;20096;-66
2023/04/03 09:29:54;;;;;;;3.05;1.08;;;6.50;99.90;;;;;;5107143;27;20051;-64
2023/04/03 09:32:31;;;;;;;3.08;0.88;;;6.50;99.90;;;;;;5109296;28;20054;-66
2023/04/03 09:35:03;;;;;;;1.85;0.75;;;6.60;99.90;;;;;;5096299;27;20069;-65
2023/04/03 09:37:43;;;;;;;2.00;0.80;;;6.60;99.90;;;;;;5109018;27;20039;-66
2023/04/03 09:40:30;;;;;;;3.95;1.00;;;6.60;99.90;;;;;;5106960;27;20066;-64
2023/04/03 09:42:59;;;;;;;3.80;0.95;;;6.70;99.90;;;;;;5106202;27;20062;-67
2023/04/03 09:45:34;;;;;;;2.50;0.80;;;6.60;99.90;;;;;;5112839;27;20062;-64
2023/04/03 09:48:12;;;;;;;2.55;1.00;;;6.70;99.90;;;;;;5110899;27;20362;-63
2023/04/03 09:50:48;;;;;;;4.30;0.85;;;6.70;99.90;;;;;;5126650;27;20464;-65
2023/04/03 09:53:29;;;;;;;3.03;1.00;;;6.80;99.90;;;;;;5112106;27;20481;-64
2023/04/03 09:55:55;;;;;;;3.55;0.90;;;7.00;99.90;;;;;;5112475;27;20413;-64
2023/04/03 09:58:31;;;;;;;3.22;0.80;;;7.10;99.90;;;;;;5118499;27;20047;-65
2023/04/03 10:00:59;;;;;;;3.78;1.10;;;7.20;99.90;;;;;;5110750;27;20031;-66
2023/04/03 10:03:29;;;;;;;4.25;0.82;;;7.30;99.90;;;;;;5126476;27;20040;-66
2023/04/03 10:05:55;;;;;;;1.70;0.90;;;7.30;99.90;;;;;;5111191;27;20539;-64
2023/04/03 10:08:26;;;;;;;1.75;0.75;;;7.20;99.90;;;;;;5112417;27;20470;-65
2023/04/03 10:11:21;;;;;;;2.88;0.77;;;7.30;99.90;;;;;;5110855;27;20163;-65
2023/04/03 10:13:53;;;;;;;1.88;0.63;;;7.30;99.90;;;;;;5124792;27;20397;-66
2023/04/03 10:16:24;;;;;;;2.40;0.80;;;7.30;99.90;;;;;;5111898;27;20043;-64
2023/04/03 10:19:01;;;;;;;2.35;0.75;;;7.40;99.90;;;;;;5105597;28;20397;-64
2023/04/03 10:21:45;;;;;;;1.80;0.80;;;7.40;99.90;;;;;;5106401;27;20043;-65
2023/04/03 10:24:40;;;;;;;4.20;1.00;;;7.40;99.90;;;;;;5103623;27;20039;-65
2023/04/03 10:27:28;;;;;;;1.40;0.65;;;7.50;99.90;;;;;;5110935;27;20058;-66
2023/04/03 10:30:15;;;;;;;1.80;0.63;;;7.60;99.90;;;;;;5100015;27;20143;-65
2023/04/03 10:33:00;;;;;;;1.02;0.60;;;7.60;99.90;;;;;;5117566;27;20038;-65
2023/04/03 10:35:49;;;;;;;3.58;0.90;;;7.60;99.90;;;;;;5100735;27;20543;-64
2023/04/03 10:38:31;;;;;;;2.53;0.60;;;7.70;99.90;;;;;;5125354;27;20632;-66
2023/04/03 10:41:23;;;;;;;2.08;0.80;;;7.70;99.90;;;;;;5108057;28;20389;-64
2023/04/03 10:44:06;;;;;;;1.58;0.80;;;7.80;99.90;;;;;;5108667;27;20448;-63
2023/04/03 10:46:55;;;;;;;3.33;0.50;;;7.90;99.90;;;;;;5103782;27;20039;-64
2023/04/03 10:49:21;;;;;;;1.35;0.65;;;7.90;99.90;;;;;;5109488;27;20100;-65
2023/04/03 10:52:32;;;;;;;1.63;0.70;;;7.90;99.90;;;;;;5110892;27;20422;-64
2023/04/03 10:55:31;;;;;;;2.25;0.85;;;7.90;99.90;;;;;;5075078;28;20039;-65
2023/04/03 10:57:59;;;;;;;2.00;0.80;;;8.00;99.90;;;;;;5097140;28;20071;-64
2023/04/03 11:00:41;;;;;;;3.45;0.85;;;8.10;99.90;;;;;;5101079;28;20122;-64
2023/04/03 11:03:13;;;;;;;2.95;0.88;;;8.10;99.90;;;;;;5122799;27;20112;-63
2023/04/03 11:05:50;;;;;;;2.72;0.88;;;8.20;99.90;;;;;;5102140;28;20393;-64
2023/04/03 11:08:39;;;;;;;1.52;0.75;;;8.30;99.90;;;;;;5107940;28;20073;-64
2023/04/03 11:11:09;;;;;;;1.48;0.60;;;8.30;99.90;;;;;;5098310;28;20087;-63
2023/04/03 11:13:48;;;;;;;1.40;0.80;;;8.40;99.90;;;;;;5110001;28;20077;-65
2023/04/03 11:16:26;;;;;;;2.90;0.80;;;8.40;99.90;;;;;;5099088;28;20051;-64
2023/04/03 11:18:58;;;;;;;2.65;0.80;;;8.30;99.50;;;;;;5112742;27;20054;-65
2023/04/03 11:21:34;;;;;;;3.92;1.00;;;8.40;99.90;;;;;;5104436;28;20507;-65
2023/04/03 11:24:04;;;;;;;2.17;0.80;;;8.50;99.90;;;;;;5107665;27;20046;-66
2023/04/03 11:26:38;;;;;;;2.55;1.05;;;8.40;98.90;;;;;;5094241;27;20078;-63
2023/04/03 11:29:12;;;;;;;1.98;0.90;;;8.40;98.20;;;;;;5098839;27;20763;-65
2023/04/03 11:32:20;;;;;;;2.60;0.90;;;8.40;99.90;;;;;;5120715;27;20046;-63
2023/04/03 11:34:49;;;;;;;2.85;0.80;;;8.60;99.90;;;;;;5103251;28;20402;-67
2023/04/03 11:37:35;;;;;;;1.92;0.70;;;8.60;99.90;;;;;;5129525;27;20192;-64
2023/04/03 11:40:03;;;;;;;2.03;0.70;;;8.50;98.90;;;;;;5105391;27;20130;-66
2023/04/03 11:42:38;;;;;;;3.95;1.20;;;8.50;99.90;;;;;;5094075;27;20054;-65
2023/04/03 11:45:22;;;;;;;2.85;1.08;;;8.70;99.90;;;;;;5106178;27;20067;-65
2023/04/03 11:47:52;;;;;;;2.35;0.95;;;8.80;99.90;;;;;;5101811;27;20121;-66
2023/04/03 11:50:31;;;;;;;4.15;1.10;;;8.90;99.90;;;;;;5124180;27;20088;-64
2023/04/03 11:52:59;;;;;;;2.88;0.90;;;9.00;99.90;;;;;;5113904;27;20039;-65
2023/04/03 11:55:30;;;;;;;2.75;1.10;;;9.10;99.90;;;;;;5108262;27;20085;-65
2023/04/03 11:58:00;;;;;;;2.47;1.50;;;9.00;99.90;;;;;;5108953;27;20050;-63
2023/04/03 12:00:46;;;;;;;2.97;0.82;;;9.00;99.90;;;;;;5107518;27;20043;-67
2023/04/03 12:03:28;;;;;;;4.28;0.85;;;9.10;99.90;;;;;;5110567;27;20039;-65
2023/04/03 12:06:05;;;;;;;3.00;0.80;;;9.10;99.90;;;;;;5107991;27;20087;-65
2023/04/03 12:08:41;;;;;;;2.67;1.00;;;9.20;99.90;;;;;;5112365;27;20397;-65
2023/04/03 12:11:12;;;;;;;2.70;0.90;;;9.20;99.90;;;;;;5130257;27;20047;-65
2023/04/03 12:14:03;;;;;;;5.07;1.00;;;9.10;98.40;;;;;;5122643;27;20473;-66
2023/04/03 12:16:33;;;;;;;3.42;1.00;;;9.10;99.90;;;;;;5111003;27;20043;-63
2023/04/03 12:19:03;;;;;;;4.75;1.00;;;9.10;99.90;;;;;;5125161;27;20086;-65
2023/04/03 12:21:32;;;;;;;1.52;0.82;;;9.20;99.90;;;;;;5104205;27;20375;-66
2023/04/03 12:24:10;;;;;;;4.88;1.20;;;9.20;99.90;;;;;;5106898;27;20043;-65
2023/04/03 12:26:43;;;;;;;3.03;1.20;;;9.30;99.90;;;;;;5108939;27;20371;-65
2023/04/03 12:29:15;;;;;;;3.90;1.20;;;9.40;99.90;;;;;;5102081;27;20046;-64
2023/04/03 12:31:52;;;;;;;3.17;0.98;;;9.50;99.90;;;;;;5109453;27;20046;-66
2023/04/03 12:34:56;;;;;;;3.53;1.10;;;9.50;98.70;;;;;;5107912;27;20120;-65
2023/04/03 12:38:02;;;;;;;3.95;1.35;;;9.60;99.10;;;;;;5088257;27;20095;-66
2023/04/03 12:40:47;;;;;;;3.33;1.10;;;9.50;98.80;;;;;;5105058;27;20109;-65
2023/04/03 12:43:44;;;;;;;1.75;1.02;;;9.50;98.60;;;;;;5104731;27;20039;-66
2023/04/03 12:46:22;;;;;;;3.22;1.20;;;9.50;99.60;;;;;;5094884;27;20051;-64
2023/04/03 12:48:57;;;;;;;4.43;1.30;;;9.50;99.60;;;;;;5125171;27;20110;-65
2023/04/03 12:51:29;;;;;;;1.75;0.98;;;9.60;99.90;;;;;;5103467;27;20047;-65
2023/04/03 12:54:01;;;;;;;3.17;1.20;;;9.60;99.90;;;;;;5103140;27;20170;-64
2023/04/03 12:56:29;;;;;;;2.22;1.10;;;9.70;99.90;;;;;;5106868;27;20531;-66
2023/04/03 12:59:17;;;;;;;2.95;1.20;;;9.70;99.90;;;;;;5103851;27;20039;-64
2023/04/03 13:01:43;;;;;;;3.13;1.25;;;9.80;99.90;;;;;;5092732;27;20464;-66
2023/04/03 13:04:12;;;;;;;4.40;1.40;;;9.90;99.90;;;;;;5114945;27;20091;-64
2023/04/03 13:06:42;;;;;;;2.65;1.20;;;10.00;99.90;;;;;;5124700;27;20478;-65
2023/04/03 13:09:22;;;;;;;3.40;1.38;;;10.10;99.90;;;;;;5131259;27;20063;-65
2023/04/03 13:11:51;;;;;;;3.42;1.38;;;10.10;98.40;;;;;;5111104;27;20126;-67